createdAt,value
2022-08-20T00:02:14.188Z,98839.78
2022-08-20T00:04:42.296Z,98846.91
2022-08-20T00:07:11.566Z,98845.88
2022-08-20T00:09:39.451Z,98850.09
2022-08-20T00:12:08.579Z,98851.28
2022-08-20T00:14:36.735Z,98852.97
2022-08-20T00:17:06.340Z,98847.22
2022-08-20T00:19:35.126Z,98854.88
2022-08-20T00:22:03.185Z,98851.63
2022-08-20T00:24:32.970Z,98863.19
2022-08-20T00:27:00.895Z,98858.19
2022-08-20T00:29:28.947Z,98862.09
2022-08-20T00:31:56.844Z,98866.75
2022-08-20T00:34:24.818Z,98861.63
2022-08-20T00:36:52.912Z,98855.03
2022-08-20T00:39:20.789Z,98860.28
2022-08-20T00:41:52.097Z,98867.84
2022-08-20T00:44:22.969Z,98869.25
2022-08-20T00:46:52.851Z,98867.16
2022-08-20T00:49:25.943Z,98866.84
2022-08-20T00:51:58.111Z,98874.94
2022-08-20T00:54:29.314Z,98875.66
2022-08-20T00:57:03.465Z,98883.44
2022-08-20T00:59:33.770Z,98884.22
2022-08-20T01:02:02.565Z,98885.41
2022-08-20T01:04:33.636Z,98887.97
2022-08-20T01:07:02.470Z,98896.50
2022-08-20T01:09:49.933Z,98892.00
2022-08-20T01:12:20.404Z,98891.75
2022-08-20T01:14:48.566Z,98893.84
2022-08-20T01:17:20.115Z,98893.38
2022-08-20T01:19:53.168Z,98903.47
2022-08-20T01:22:46.971Z,98902.72
2022-08-20T01:25:26.434Z,98885.22
2022-08-20T01:27:57.313Z,98889.09
2022-08-20T01:30:28.553Z,98890.41
2022-08-20T01:32:56.831Z,98890.16
2022-08-20T01:35:25.989Z,98905.03
2022-08-20T01:37:54.832Z,98902.91
2022-08-20T01:40:37.504Z,98906.97
2022-08-20T01:43:09.131Z,98910.88
2022-08-20T01:45:40.201Z,98906.56
2022-08-20T01:48:09.695Z,98909.66
2022-08-20T01:50:41.283Z,98899.19
2022-08-20T01:53:17.996Z,98903.44
2022-08-20T01:55:46.219Z,98898.84
2022-08-20T01:58:15.665Z,98897.34
2022-08-20T02:00:44.258Z,98901.16
2022-08-20T02:03:12.516Z,98900.97
2022-08-20T02:05:40.545Z,98895.50
2022-08-20T02:08:08.395Z,98907.00
2022-08-20T02:10:36.577Z,98904.59
2022-08-20T02:13:08.323Z,98903.75
2022-08-20T02:15:39.956Z,98893.69
2022-08-20T02:18:15.503Z,98908.31
2022-08-20T02:20:44.444Z,98908.03
2022-08-20T02:23:15.501Z,98912.31
2022-08-20T02:25:47.476Z,98917.59
2022-08-20T02:28:18.082Z,98913.19
2022-08-20T02:30:48.193Z,98921.13
2022-08-20T02:33:18.741Z,98924.84
2022-08-20T02:35:49.438Z,98923.59
2022-08-20T02:38:17.661Z,98923.97
2022-08-20T02:40:49.095Z,98928.06
2022-08-20T02:43:20.216Z,98928.84
2022-08-20T02:45:49.603Z,98925.03
2022-08-20T02:48:20.906Z,98923.75
2022-08-20T02:50:51.941Z,98926.47
2022-08-20T02:53:20.253Z,98927.00
2022-08-20T02:55:48.140Z,98932.56
2022-08-20T02:58:16.801Z,98930.22
2022-08-20T03:00:46.000Z,98929.69
2022-08-20T03:03:17.027Z,98939.09
2022-08-20T03:05:45.710Z,98938.31
2022-08-20T03:08:14.768Z,98936.66
2022-08-20T03:10:44.062Z,98925.66
2022-08-20T03:13:12.680Z,98927.31
2022-08-20T03:15:42.437Z,98924.56
2022-08-20T03:18:11.013Z,98928.56
2022-08-20T03:20:41.107Z,98937.84
2022-08-20T03:23:08.916Z,98939.22
2022-08-20T03:25:37.391Z,98934.78
2022-08-20T03:28:05.672Z,98936.47
2022-08-20T03:30:34.089Z,98936.16
2022-08-20T03:33:01.919Z,98939.28
2022-08-20T03:35:31.715Z,98935.47
2022-08-20T03:38:01.003Z,98934.22
2022-08-20T03:40:33.455Z,98943.69
2022-08-20T03:43:01.949Z,98936.88
2022-08-20T03:45:32.494Z,98935.03
2022-08-20T03:48:01.645Z,98939.16
2022-08-20T03:50:32.748Z,98933.34
2022-08-20T03:53:02.520Z,98935.72
2022-08-20T03:55:32.160Z,98938.47
2022-08-20T03:58:02.228Z,98930.38
2022-08-20T04:00:33.260Z,98939.09
2022-08-20T04:03:01.852Z,98943.50
2022-08-20T04:05:33.471Z,98942.72
2022-08-20T04:08:04.218Z,98944.06
2022-08-20T04:10:32.182Z,98946.88
2022-08-20T04:13:00.141Z,98935.88
2022-08-20T04:15:29.536Z,98951.47
2022-08-20T04:17:59.973Z,98950.63
2022-08-20T04:20:28.277Z,98946.50
2022-08-20T04:22:59.157Z,98946.59
2022-08-20T04:25:29.994Z,98944.13
2022-08-20T04:28:06.645Z,98955.25
2022-08-20T04:30:35.040Z,98955.47
2022-08-20T04:33:03.305Z,98952.38
2022-08-20T04:35:31.920Z,98955.31
2022-08-20T04:38:01.294Z,98955.59
2022-08-20T04:40:48.498Z,98954.97
2022-08-20T04:43:16.742Z,98960.75
2022-08-20T04:45:47.138Z,98968.91
2022-08-20T04:48:15.453Z,98965.94
2022-08-20T04:50:46.923Z,98974.75
2022-08-20T04:53:19.883Z,98982.44
2022-08-20T04:55:53.321Z,98991.47
2022-08-20T04:58:24.536Z,98999.47
2022-08-20T05:00:55.163Z,98996.66
2022-08-20T05:03:24.012Z,98998.72
2022-08-20T05:05:53.147Z,98994.66
2022-08-20T05:08:23.018Z,98995.25
2022-08-20T05:10:58.132Z,99000.75
2022-08-20T05:13:42.963Z,99002.22
2022-08-20T05:16:11.108Z,99003.31
2022-08-20T05:18:39.103Z,99006.22
2022-08-20T05:21:07.936Z,99006.63
2022-08-20T05:23:40.604Z,99007.78
2022-08-20T05:26:10.520Z,99010.31
2022-08-20T05:28:51.391Z,99016.25
2022-08-20T05:31:32.354Z,99026.81
2022-08-20T05:34:01.836Z,99014.50
2022-08-20T05:36:30.080Z,99013.03
2022-08-20T05:38:58.069Z,99023.53
2022-08-20T05:41:30.231Z,99027.84
2022-08-20T05:44:00.675Z,99024.81
2022-08-20T05:46:28.711Z,99028.72
2022-08-20T05:48:59.607Z,99038.09
2022-08-20T05:51:28.401Z,99040.53
2022-08-20T05:53:59.499Z,99041.00
2022-08-20T05:56:31.335Z,99039.53
2022-08-20T05:59:02.656Z,99039.03
2022-08-20T06:01:30.718Z,99031.13
2022-08-20T06:04:16.701Z,99039.50
2022-08-20T06:06:47.209Z,99036.97
2022-08-20T06:09:30.851Z,99033.78
2022-08-20T06:12:02.669Z,99030.81
2022-08-20T06:14:31.419Z,99028.09
2022-08-20T06:17:04.899Z,99032.31
2022-08-20T06:19:33.671Z,99034.53
2022-08-20T06:22:02.175Z,99029.72
2022-08-20T06:24:36.801Z,99037.31
2022-08-20T06:27:07.444Z,99030.38
2022-08-20T06:29:37.154Z,99040.50
2022-08-20T06:32:05.586Z,99034.69
2022-08-20T06:34:33.541Z,99045.28
2022-08-20T06:37:01.416Z,99039.50
2022-08-20T06:39:30.163Z,99039.75
2022-08-20T06:41:58.644Z,99042.13
2022-08-20T06:44:28.470Z,99044.03
2022-08-20T06:47:00.813Z,99047.75
2022-08-20T06:49:29.616Z,99037.28
2022-08-20T06:52:03.628Z,99043.38
2022-08-20T06:54:34.294Z,99048.09
2022-08-20T06:57:02.275Z,99046.44
2022-08-20T06:59:31.452Z,99046.28
2022-08-20T07:01:59.745Z,99044.47
2022-08-20T07:04:28.365Z,99042.25
2022-08-20T07:06:57.718Z,99046.97
2022-08-20T07:09:27.242Z,99035.72
2022-08-20T07:11:56.153Z,99045.59
2022-08-20T07:14:24.423Z,99051.38
2022-08-20T07:16:53.634Z,99047.69
2022-08-20T07:19:21.542Z,99050.31
2022-08-20T07:21:51.972Z,99047.66
2022-08-20T07:24:19.671Z,99044.00
2022-08-20T07:26:49.061Z,99049.69
2022-08-20T07:29:16.973Z,99053.50
2022-08-20T07:32:06.916Z,99045.78
2022-08-20T07:34:38.884Z,99050.75
2022-08-20T07:37:11.520Z,99046.91
2022-08-20T07:39:39.403Z,99065.81
2022-08-20T07:42:07.696Z,99054.94
2022-08-20T07:46:09.021Z,99060.13
2022-08-20T07:48:40.013Z,99053.41
2022-08-20T07:51:09.689Z,99061.44
2022-08-20T07:53:39.861Z,99060.88
2022-08-20T07:56:09.092Z,99057.00
2022-08-20T07:58:38.297Z,99068.41
2022-08-20T08:01:10.663Z,99068.66
2022-08-20T08:03:48.776Z,99071.19
2022-08-20T08:06:28.267Z,99066.25
2022-08-20T08:08:57.376Z,99066.09
2022-08-20T08:11:26.116Z,99069.72
2022-08-20T08:13:54.650Z,99063.44
2022-08-20T08:16:24.992Z,99083.13
2022-08-20T08:18:56.936Z,99071.44
2022-08-20T08:21:25.328Z,99076.16
2022-08-20T08:23:53.493Z,99077.16
2022-08-20T08:26:22.427Z,99080.00
2022-08-20T08:28:50.921Z,99078.03
2022-08-20T08:31:18.747Z,99081.66
2022-08-20T08:33:47.983Z,99091.22
2022-08-20T08:36:17.182Z,99085.22
2022-08-20T08:38:46.427Z,99088.31
2022-08-20T08:41:18.458Z,99090.91
2022-08-20T08:43:48.735Z,99087.50
2022-08-20T08:46:21.543Z,99096.59
2022-08-20T08:48:54.497Z,99091.94
2022-08-20T08:51:29.315Z,99101.50
2022-08-20T08:54:00.346Z,99099.19
2022-08-20T08:56:32.489Z,99107.53
2022-08-20T08:59:05.437Z,99105.97
2022-08-20T09:01:54.615Z,99099.25
2022-08-20T09:04:31.769Z,99101.84
2022-08-20T09:07:01.278Z,99105.47
2022-08-20T09:09:51.962Z,99105.97
2022-08-20T09:12:22.335Z,99103.13
2022-08-20T09:14:50.782Z,99104.44
2022-08-20T09:17:20.781Z,99100.50
2022-08-20T09:19:50.239Z,99106.88
2022-08-20T09:22:20.826Z,99102.25
2022-08-20T09:24:49.107Z,99108.53
2022-08-20T09:27:16.979Z,99116.75
2022-08-20T09:29:46.692Z,99113.44
2022-08-20T09:32:23.269Z,99110.75
2022-08-20T09:35:00.014Z,99102.13
2022-08-20T09:37:36.780Z,99103.19
2022-08-20T09:40:08.085Z,99108.56
2022-08-20T09:42:41.345Z,99106.84
2022-08-20T09:45:11.651Z,99100.06
2022-08-20T09:47:39.891Z,99098.19
2022-08-20T09:50:25.235Z,99098.31
2022-08-20T09:52:54.640Z,99100.75
2022-08-20T09:55:27.737Z,99095.72
2022-08-20T09:57:55.837Z,99094.50
2022-08-20T10:00:23.897Z,99096.03
2022-08-20T10:02:51.875Z,99094.69
2022-08-20T10:05:19.913Z,99094.81
2022-08-20T10:07:49.082Z,99100.50
2022-08-20T10:10:17.007Z,99097.16
2022-08-20T10:12:46.114Z,99104.22
2022-08-20T10:15:14.504Z,99094.09
2022-08-20T10:17:44.115Z,99093.94
2022-08-20T10:20:14.688Z,99094.28
2022-08-20T10:22:42.933Z,99089.25
2022-08-20T10:25:13.512Z,99095.28
2022-08-20T10:27:41.532Z,99100.25
2022-08-20T10:30:10.712Z,99097.56
2022-08-20T10:32:39.847Z,99097.41
2022-08-20T10:35:09.709Z,99093.19
2022-08-20T10:37:37.865Z,99088.28
2022-08-20T10:40:08.228Z,99084.91
2022-08-20T10:42:42.301Z,99084.75
2022-08-20T10:45:11.737Z,99080.25
2022-08-20T10:47:39.887Z,99076.94
2022-08-20T10:50:11.528Z,99079.50
2022-08-20T10:52:39.872Z,99077.50
2022-08-20T10:55:09.068Z,99071.34
2022-08-20T10:57:40.801Z,99076.19
2022-08-20T11:00:10.855Z,99072.00
2022-08-20T11:02:39.091Z,99076.13
2022-08-20T11:05:09.918Z,99077.34
2022-08-20T11:08:00.233Z,99075.31
2022-08-20T11:10:29.560Z,99072.72
2022-08-20T11:12:58.746Z,99075.94
2022-08-20T11:15:27.043Z,99065.78
2022-08-20T11:17:55.368Z,99073.34
2022-08-20T11:20:26.499Z,99073.00
2022-08-20T11:22:55.461Z,99070.06
2022-08-20T11:25:25.026Z,99066.09
2022-08-20T11:27:54.627Z,99063.91
2022-08-20T11:30:26.075Z,99061.25
2022-08-20T11:32:54.879Z,99056.19
2022-08-20T11:35:47.992Z,99052.19
2022-08-20T11:38:11.824Z,99050.03
2022-08-20T11:40:40.102Z,99055.00
2022-08-20T11:43:14.814Z,99050.25
2022-08-20T11:45:46.329Z,99047.16
2022-08-20T11:48:14.592Z,99055.72
2022-08-20T11:50:43.103Z,99056.13
2022-08-20T11:53:11.011Z,99054.63
2022-08-20T11:55:39.313Z,99062.41
2022-08-20T11:58:07.308Z,99064.19
2022-08-20T12:00:36.767Z,99056.13
2022-08-20T12:03:09.158Z,99055.94
2022-08-20T12:05:37.847Z,99065.06
2022-08-20T12:08:06.229Z,99050.66
2022-08-20T12:10:34.822Z,99052.00
2022-08-20T12:13:04.766Z,99056.66
2022-08-20T12:15:33.356Z,99045.72
2022-08-20T12:18:02.028Z,99052.16
2022-08-20T12:20:31.400Z,99047.91
2022-08-20T12:22:59.321Z,99042.06
2022-08-20T12:25:27.635Z,99038.63
2022-08-20T12:27:55.715Z,99044.44
2022-08-20T12:30:25.350Z,99037.38
2022-08-20T12:32:53.451Z,99046.81
2022-08-20T12:35:21.772Z,99037.81
2022-08-20T12:37:51.837Z,99040.09
2022-08-20T12:40:31.837Z,99031.84
2022-08-20T12:43:01.335Z,99035.34
2022-08-20T12:45:29.534Z,99030.66
2022-08-20T12:48:02.903Z,99032.47
2022-08-20T12:50:31.971Z,99034.41
2022-08-20T12:53:02.467Z,99042.03
2022-08-20T12:55:30.546Z,99037.25
2022-08-20T12:58:01.454Z,99046.53
2022-08-20T13:00:31.834Z,99044.97
2022-08-20T13:03:02.380Z,99047.41
2022-08-20T13:05:31.565Z,99044.38
2022-08-20T13:08:01.420Z,99043.91
2022-08-20T13:10:31.091Z,99037.97
2022-08-20T13:12:59.582Z,99037.53
2022-08-20T13:15:27.495Z,99032.56
2022-08-20T13:17:57.225Z,99028.72
2022-08-20T13:20:34.147Z,99021.38
2022-08-20T13:23:05.931Z,99029.84
2022-08-20T13:25:34.604Z,99030.88
2022-08-20T13:28:04.896Z,99035.63
2022-08-20T13:30:34.444Z,99028.78
2022-08-20T13:33:02.575Z,99026.31
2022-08-20T13:35:31.245Z,99028.47
2022-08-20T13:37:59.144Z,99022.09
2022-08-20T13:40:28.465Z,99025.53
2022-08-20T13:42:56.534Z,99026.78
2022-08-20T13:45:24.433Z,99019.28
2022-08-20T13:47:55.026Z,99025.63
2022-08-20T13:50:26.805Z,99025.31
2022-08-20T13:52:56.245Z,99029.59
2022-08-20T13:55:26.605Z,99026.88
2022-08-20T13:57:57.731Z,99040.47
2022-08-20T14:00:31.129Z,99038.31
2022-08-20T14:03:00.096Z,99040.03
2022-08-20T14:05:28.031Z,99033.75
2022-08-20T14:07:56.143Z,99038.25
2022-08-20T14:10:31.316Z,99036.69
2022-08-20T14:13:00.920Z,99029.06
2022-08-20T14:15:28.911Z,99035.28
2022-08-20T14:17:58.577Z,99050.19
2022-08-20T14:20:29.304Z,99065.63
2022-08-20T14:23:00.999Z,99058.88
2022-08-20T14:25:30.197Z,99062.66
2022-08-20T14:27:58.835Z,99063.94
2022-08-20T14:30:31.087Z,99072.03
2022-08-20T14:32:58.984Z,99074.81
2022-08-20T14:35:26.870Z,99070.28
2022-08-20T14:37:56.605Z,99066.63
2022-08-20T14:40:26.279Z,99071.09
2022-08-20T14:42:54.633Z,99074.66
2022-08-20T14:45:23.390Z,99064.13
2022-08-20T14:47:54.413Z,99064.75
2022-08-20T14:50:26.080Z,99069.78
2022-08-20T14:52:55.250Z,99054.13
2022-08-20T14:55:26.409Z,99058.31
2022-08-20T14:57:54.770Z,99054.81
2022-08-20T15:00:25.310Z,99052.00
2022-08-20T15:02:54.446Z,99036.66
2022-08-20T15:05:22.367Z,99041.69
2022-08-20T15:07:54.067Z,99036.78
2022-08-20T15:10:26.335Z,99033.44
2022-08-20T15:12:54.352Z,99039.91
2022-08-20T15:15:23.973Z,99037.44
2022-08-20T15:17:55.932Z,99041.78
2022-08-20T15:20:26.677Z,99043.88
2022-08-20T15:22:55.277Z,99046.19
2022-08-20T15:25:36.444Z,99037.84
2022-08-20T15:28:08.231Z,99056.38
2022-08-20T15:30:36.812Z,99042.63
2022-08-20T15:33:06.308Z,99051.81
2022-08-20T15:35:34.269Z,99044.91
2022-08-20T15:38:02.851Z,99038.75
2022-08-20T15:40:33.568Z,99047.69
2022-08-20T15:43:02.940Z,99042.91
2022-08-20T15:45:31.266Z,99044.56
2022-08-20T15:48:07.839Z,99044.44
2022-08-20T15:50:49.288Z,99031.94
2022-08-20T15:53:21.690Z,99047.22
2022-08-20T15:56:11.302Z,99034.50
2022-08-20T15:58:52.563Z,99023.28
2022-08-20T16:01:29.503Z,99027.03
2022-08-20T16:04:28.788Z,99034.84
2022-08-20T16:07:02.585Z,99035.91
2022-08-20T16:09:45.594Z,99026.31
2022-08-20T16:12:18.647Z,99032.25
2022-08-20T16:14:50.134Z,99034.19
2022-08-20T16:17:27.031Z,99033.09
2022-08-20T16:20:03.572Z,99026.47
2022-08-20T16:22:33.192Z,99032.97
2022-08-20T16:25:01.407Z,99032.41
2022-08-20T16:27:36.395Z,99036.38
2022-08-20T16:30:08.596Z,99044.06
2022-08-20T16:32:44.609Z,99033.09
2022-08-20T16:35:30.097Z,99044.63
2022-08-20T16:38:20.763Z,99057.59
2022-08-20T16:40:55.487Z,99056.84
2022-08-20T16:43:28.667Z,99051.88
2022-08-20T16:46:02.995Z,99045.44
2022-08-20T16:48:39.856Z,99056.63
2022-08-20T16:51:14.295Z,99047.31
2022-08-20T16:53:43.944Z,99055.41
2022-08-20T16:56:11.898Z,99054.06
2022-08-20T16:58:40.384Z,99051.72
2022-08-20T17:01:12.945Z,99046.06
2022-08-20T17:03:50.046Z,99060.00
2022-08-20T17:06:25.889Z,99060.91
2022-08-20T17:08:55.298Z,99044.88
2022-08-20T17:11:26.320Z,99047.72
2022-08-20T17:14:05.713Z,99054.50
2022-08-20T17:16:35.439Z,99048.25
2022-08-20T17:19:11.176Z,99058.28
2022-08-20T17:21:40.045Z,99052.06
2022-08-20T17:24:16.565Z,99056.16
2022-08-20T17:26:47.805Z,99056.41
2022-08-20T17:29:18.500Z,99061.28
2022-08-20T17:31:49.157Z,99070.94
2022-08-20T17:34:19.853Z,99075.78
2022-08-20T17:36:54.600Z,99060.72
2022-08-20T17:39:26.161Z,99066.53
2022-08-20T17:41:58.420Z,99066.97
2022-08-20T17:44:30.356Z,99066.94
2022-08-20T17:47:02.348Z,99071.91
2022-08-20T17:49:35.535Z,99069.38
2022-08-20T17:52:06.943Z,99066.66
2022-08-20T17:54:41.699Z,99058.56
2022-08-20T17:58:01.334Z,99055.72
2022-08-20T18:00:29.639Z,99052.28
2022-08-20T18:03:00.633Z,99055.66
2022-08-20T18:05:55.133Z,99065.31
2022-08-20T18:08:41.181Z,99054.63
2022-08-20T18:11:26.051Z,99058.81
2022-08-20T18:14:04.127Z,99058.03
2022-08-20T18:16:42.484Z,99064.47
2022-08-20T18:19:16.094Z,99069.38
2022-08-20T18:22:05.262Z,99061.66
2022-08-20T18:24:41.340Z,99072.03
2022-08-20T18:27:15.782Z,99078.53
2022-08-20T18:29:46.940Z,99073.59
2022-08-20T18:32:28.676Z,99076.19
2022-08-20T18:35:09.855Z,99082.41
2022-08-20T18:37:37.844Z,99089.66
2022-08-20T18:40:10.390Z,99084.44
2022-08-20T18:42:39.664Z,99087.28
2022-08-20T18:45:08.649Z,99081.34
2022-08-20T18:47:47.355Z,99088.34
2022-08-20T18:50:24.969Z,99089.88
2022-08-20T18:53:06.372Z,99090.13
2022-08-20T18:55:37.484Z,99092.91
2022-08-20T18:58:09.377Z,99092.25
2022-08-20T19:00:44.693Z,99089.97
2022-08-20T19:03:22.638Z,99093.66
2022-08-20T19:06:08.404Z,99096.00
2022-08-20T19:08:45.904Z,99092.91
2022-08-20T19:11:43.166Z,99083.41
2022-08-20T19:14:46.966Z,99088.53
2022-08-20T19:17:19.669Z,99089.09
2022-08-20T19:20:01.746Z,99088.06
2022-08-20T19:22:35.609Z,99095.25
2022-08-20T19:25:06.127Z,99103.00
2022-08-20T19:27:34.463Z,99100.94
2022-08-20T19:30:04.038Z,99097.69
2022-08-20T19:32:46.343Z,99094.72
2022-08-20T19:35:21.071Z,99084.63
2022-08-20T19:37:50.542Z,99095.25
2022-08-20T19:40:30.644Z,99097.97
2022-08-20T19:43:05.856Z,99097.75
2022-08-20T19:45:40.096Z,99103.16
2022-08-20T19:48:32.215Z,99098.50
2022-08-20T19:51:07.871Z,99095.13
2022-08-20T19:53:38.254Z,99103.13
2022-08-20T19:56:14.505Z,99091.44
2022-08-20T19:58:45.536Z,99104.69
2022-08-20T20:01:21.681Z,99096.44
2022-08-20T20:03:58.576Z,99094.25
2022-08-20T20:06:36.222Z,99101.50
2022-08-20T20:09:09.023Z,99107.41
2022-08-20T20:11:41.391Z,99109.22
2022-08-20T20:14:12.938Z,99096.94
2022-08-20T20:16:43.919Z,99113.59
2022-08-20T20:19:29.626Z,99107.06
2022-08-20T20:22:19.023Z,99107.88
2022-08-20T20:24:58.055Z,99105.50
2022-08-20T20:27:29.039Z,99106.81
2022-08-20T20:30:01.145Z,99110.97
2022-08-20T20:32:33.740Z,99108.56
2022-08-20T20:35:05.836Z,99114.47
2022-08-20T20:37:49.922Z,99109.91
2022-08-20T20:40:25.250Z,99111.97
2022-08-20T20:43:04.636Z,99119.16
2022-08-20T20:45:36.155Z,99123.81
2022-08-20T20:48:18.117Z,99122.38
2022-08-20T20:50:47.508Z,99120.78
2022-08-20T20:53:25.639Z,99118.06
2022-08-20T20:56:36.844Z,99108.78
2022-08-20T20:59:07.394Z,99108.22
2022-08-20T21:01:49.344Z,99113.78
2022-08-20T21:04:21.250Z,99111.16
2022-08-20T21:06:49.634Z,99113.19
2022-08-20T21:09:18.656Z,99113.63
2022-08-20T21:11:46.933Z,99115.13
2022-08-20T21:14:15.373Z,99114.53
2022-08-20T21:16:44.325Z,99108.53
2022-08-20T21:19:13.234Z,99097.88
2022-08-20T21:21:43.861Z,99110.41
2022-08-20T21:24:12.135Z,99106.78
2022-08-20T21:26:40.784Z,99107.63
2022-08-20T21:29:12.212Z,99111.91
2022-08-20T21:31:44.021Z,99106.81
2022-08-20T21:34:13.341Z,99106.44
2022-08-20T21:36:42.864Z,99109.63
2022-08-20T21:39:11.562Z,99100.28
2022-08-20T21:41:42.809Z,99105.53
2022-08-20T21:44:13.635Z,99102.31
2022-08-20T21:46:41.524Z,99101.28
2022-08-20T21:49:09.405Z,99107.88
2022-08-20T21:51:37.441Z,99113.41
2022-08-20T21:54:07.023Z,99109.06
2022-08-20T21:56:36.858Z,99111.56
2022-08-20T21:59:05.737Z,99117.97
2022-08-20T22:01:33.608Z,99117.53
2022-08-20T22:04:01.902Z,99115.03
2022-08-20T22:06:29.754Z,99116.00
2022-08-20T22:08:57.672Z,99117.00
2022-08-20T22:11:27.878Z,99106.97
2022-08-20T22:13:56.111Z,99106.97
2022-08-20T22:16:24.710Z,99109.09
2022-08-20T22:18:52.679Z,99111.88
2022-08-20T22:21:23.681Z,99100.03
2022-08-20T22:23:52.712Z,99102.28
2022-08-20T22:26:21.415Z,99103.25
2022-08-20T22:28:50.928Z,99115.38
2022-08-20T22:31:22.473Z,99114.19
2022-08-20T22:33:50.303Z,99115.81
2022-08-20T22:36:18.494Z,99122.72
2022-08-20T22:38:47.314Z,99126.44
2022-08-20T22:41:23.543Z,99119.22
2022-08-20T22:43:55.768Z,99116.28
2022-08-20T22:46:27.172Z,99115.59
2022-08-20T22:48:55.797Z,99116.63
2022-08-20T22:51:27.824Z,99119.88
2022-08-20T22:53:56.119Z,99121.72
2022-08-20T22:56:24.037Z,99124.06
2022-08-20T22:58:54.098Z,99122.63
2022-08-20T23:01:22.400Z,99121.03
2022-08-20T23:03:50.338Z,99117.34
2022-08-20T23:06:18.835Z,99106.31
2022-08-20T23:08:46.886Z,99112.19
2022-08-20T23:11:14.806Z,99110.13
2022-08-20T23:13:42.727Z,99099.97
2022-08-20T23:16:11.998Z,99106.91
2022-08-20T23:18:39.999Z,99113.34
2022-08-20T23:21:08.129Z,99113.16
2022-08-20T23:23:35.970Z,99117.34
2022-08-20T23:26:03.915Z,99116.88
2022-08-20T23:28:31.874Z,99117.66
2022-08-20T23:30:59.720Z,99114.69
2022-08-20T23:33:29.160Z,99116.47
2022-08-20T23:35:57.317Z,99114.31
2022-08-20T23:38:25.185Z,99108.44
2022-08-20T23:40:53.080Z,99113.81
2022-08-20T23:43:21.110Z,99119.28
2022-08-20T23:45:49.073Z,99115.19
2022-08-20T23:48:17.063Z,99103.00
2022-08-20T23:50:46.606Z,99108.34
2022-08-20T23:53:14.737Z,99107.06
2022-08-20T23:55:42.844Z,99105.13
2022-08-20T23:58:11.135Z,99106.47
